Time;durP1;ratioP1;P1;durP2;ratioP2;P2;SDS_P1;SDS_P2;PMS_P1;PMS_P2;Temp;Humidity;BMP_temperature;BMP_pressure;BME280_temperature;BME280_humidity;BME280_pressure;Samples;Min_cycle;Max_cycle;Signal;HPM_P1;HPM_P2
2022/03/18 00:02:23;;;;;;;11.67;7.67;;;9.00;1.00;;;;;;5074921;28;20466;-84
2022/03/18 00:04:52;;;;;;;11.27;7.53;;;9.00;1.00;;;;;;5073236;28;20976;-82
2022/03/18 00:07:20;;;;;;;8.87;7.13;;;9.00;1.00;;;;;;5074335;28;21277;-84
2022/03/18 00:09:47;;;;;;;10.43;7.87;;;9.00;1.00;;;;;;5070654;28;20459;-84
2022/03/18 00:12:14;;;;;;;10.70;7.87;;;9.00;1.00;;;;;;5076700;28;20436;-84
2022/03/18 00:14:40;;;;;;;14.60;7.90;;;9.00;1.00;;;;;;5069558;28;20892;-82
2022/03/18 00:17:08;;;;;;;11.30;8.10;;;9.00;1.00;;;;;;5077210;28;20463;-82
2022/03/18 00:19:35;;;;;;;8.60;7.05;;;9.00;1.00;;;;;;5078426;28;20448;-84
2022/03/18 00:22:04;;;;;;;8.80;7.07;;;9.00;1.00;;;;;;5075177;28;21297;-82
2022/03/18 00:24:32;;;;;;;10.07;6.40;;;9.00;1.00;;;;;;5075246;28;21074;-82
2022/03/18 00:26:59;;;;;;;10.13;6.77;;;8.90;1.00;;;;;;5091099;28;20451;-82
2022/03/18 00:29:26;;;;;;;9.67;6.83;;;8.90;1.00;;;;;;5082790;28;20446;-82
2022/03/18 00:31:52;;;;;;;8.50;6.83;;;8.90;1.00;;;;;;5076799;28;20981;-84
2022/03/18 00:34:19;;;;;;;11.37;7.20;;;8.90;1.00;;;;;;5077774;28;20463;-83
2022/03/18 00:36:46;;;;;;;11.27;7.17;;;9.00;1.00;;;;;;5072077;28;21585;-83
2022/03/18 00:39:14;;;;;;;10.83;6.50;;;9.00;1.00;;;;;;5074054;28;20438;-84
2022/03/18 00:41:42;;;;;;;10.90;6.67;;;9.10;1.00;;;;;;5078666;28;20435;-85
2022/03/18 00:44:11;;;;;;;12.30;6.33;;;9.10;1.00;;;;;;5072294;28;20424;-84
2022/03/18 00:46:38;;;;;;;10.10;6.27;;;9.00;1.00;;;;;;5073756;28;21167;-84
2022/03/18 00:52:07;;;;;;;10.43;6.40;;;9.10;1.00;;;;;;5074077;28;20458;-84
2022/03/18 00:54:40;;;;;;;11.07;6.03;;;9.10;1.00;;;;;;5080715;28;21040;-84
2022/03/18 00:57:08;;;;;;;9.13;5.82;;;9.10;1.00;;;;;;5081526;28;20424;-82
2022/03/18 00:59:34;;;;;;;8.60;6.07;;;9.00;1.00;;;;;;5068682;28;20743;-82
2022/03/18 01:02:02;;;;;;;13.20;6.10;;;9.10;1.00;;;;;;5077536;28;20228;-84
2022/03/18 01:04:29;;;;;;;11.50;5.93;;;9.10;1.00;;;;;;5077222;28;21220;-84
2022/03/18 01:06:57;;;;;;;10.97;5.27;;;9.10;1.00;;;;;;5065418;28;21025;-84
2022/03/18 01:09:24;;;;;;;9.00;6.23;;;9.10;1.00;;;;;;5071251;28;20444;-85
2022/03/18 01:11:54;;;;;;;9.13;6.40;;;9.10;1.00;;;;;;5070045;28;21398;-83
2022/03/18 01:14:22;;;;;;;9.73;6.50;;;9.10;1.00;;;;;;5070134;28;20467;-83
2022/03/18 01:16:48;;;;;;;9.90;6.53;;;9.10;1.00;;;;;;5074655;28;20447;-80
2022/03/18 01:19:15;;;;;;;10.70;6.43;;;9.10;1.00;;;;;;5071283;28;20458;-81
2022/03/18 01:21:43;;;;;;;10.90;6.07;;;9.00;1.00;;;;;;5071492;28;20458;-82
2022/03/18 01:24:10;;;;;;;10.67;5.27;;;9.10;1.00;;;;;;5071847;28;20495;-81
2022/03/18 01:26:37;;;;;;;8.93;6.10;;;9.00;1.00;;;;;;5070614;28;20468;-81
2022/03/18 01:29:05;;;;;;;9.73;6.20;;;9.00;1.00;;;;;;5076595;28;20443;-81
2022/03/18 01:31:32;;;;;;;7.03;5.87;;;9.00;1.00;;;;;;5072986;28;20221;-80
2022/03/18 01:33:58;;;;;;;7.57;6.30;;;9.00;1.00;;;;;;5073726;28;20478;-82
2022/03/18 01:36:25;;;;;;;10.73;6.50;;;9.10;1.00;;;;;;5074359;28;20459;-81
2022/03/18 01:38:53;;;;;;;11.25;7.40;;;9.10;1.00;;;;;;5072524;28;20439;-81
2022/03/18 01:41:19;;;;;;;12.93;7.13;;;9.10;1.00;;;;;;5074668;28;20239;-80
2022/03/18 01:43:47;;;;;;;12.03;6.90;;;9.10;1.00;;;;;;5086023;28;20624;-80
2022/03/18 01:46:17;;;;;;;11.40;6.30;;;9.00;1.00;;;;;;5085759;28;20467;-81
2022/03/18 01:48:44;;;;;;;11.10;6.03;;;9.10;1.00;;;;;;5084779;28;20455;-81
2022/03/18 01:51:11;;;;;;;11.20;6.50;;;9.10;1.00;;;;;;5091786;28;20407;-80
2022/03/18 01:53:39;;;;;;;12.37;6.43;;;9.10;1.00;;;;;;5092579;28;20440;-80
2022/03/18 01:56:06;;;;;;;10.90;6.27;;;9.10;1.00;;;;;;5079048;28;20467;-81
2022/03/18 01:58:34;;;;;;;10.30;6.20;;;9.10;1.00;;;;;;5082877;28;20440;-80
2022/03/18 02:01:01;;;;;;;11.60;7.43;;;9.10;1.00;;;;;;5074823;28;20427;-81
2022/03/18 02:03:29;;;;;;;11.13;6.33;;;9.10;1.00;;;;;;5078925;28;20698;-81
2022/03/18 02:05:57;;;;;;;14.97;6.80;;;9.10;1.00;;;;;;5076810;28;20462;-81
2022/03/18 02:08:25;;;;;;;15.80;7.40;;;9.10;1.00;;;;;;5091984;28;20544;-80
2022/03/18 02:10:53;;;;;;;9.97;6.97;;;9.10;1.00;;;;;;5075612;28;20482;-82
2022/03/18 02:13:20;;;;;;;10.57;6.07;;;9.10;1.00;;;;;;5076882;28;20474;-82
2022/03/18 02:15:47;;;;;;;8.67;6.00;;;9.10;1.00;;;;;;5080854;28;20451;-81
2022/03/18 02:18:16;;;;;;;11.13;6.50;;;9.10;1.00;;;;;;5101102;28;20433;-80
2022/03/18 02:20:44;;;;;;;10.93;5.60;;;9.10;1.00;;;;;;5098887;27;20416;-80
2022/03/18 02:23:12;;;;;;;8.67;5.77;;;9.10;1.00;;;;;;5098944;27;20426;-80
2022/03/18 02:25:38;;;;;;;9.73;5.60;;;9.00;1.00;;;;;;5090595;28;20482;-80
2022/03/18 02:28:05;;;;;;;12.27;6.27;;;9.00;1.00;;;;;;5073741;28;20422;-84
2022/03/18 02:30:34;;;;;;;8.80;5.80;;;9.10;1.00;;;;;;5072671;28;20558;-84
2022/03/18 02:33:01;;;;;;;8.70;5.10;;;9.00;1.00;;;;;;5079089;28;20471;-86
2022/03/18 02:35:29;;;;;;;12.77;6.10;;;9.00;1.00;;;;;;5075523;28;20538;-83
2022/03/18 02:37:56;;;;;;;10.03;5.50;;;9.10;1.00;;;;;;5081123;28;20427;-84
2022/03/18 02:40:25;;;;;;;12.83;5.60;;;9.10;1.00;;;;;;5070630;28;20431;-81
2022/03/18 02:42:52;;;;;;;9.87;5.50;;;9.00;1.00;;;;;;5075432;28;20459;-82
2022/03/18 02:45:19;;;;;;;8.45;5.47;;;9.10;1.00;;;;;;5067339;28;20918;-82
2022/03/18 02:47:46;;;;;;;8.70;5.60;;;9.10;1.00;;;;;;5086978;28;20220;-81
2022/03/18 02:50:13;;;;;;;9.70;5.30;;;9.00;1.00;;;;;;5082011;28;20466;-84
2022/03/18 02:52:40;;;;;;;8.90;5.40;;;9.00;1.00;;;;;;5080155;28;20448;-83
2022/03/18 02:55:09;;;;;;;12.23;4.97;;;9.00;1.00;;;;;;5071177;28;20501;-84
2022/03/18 02:57:37;;;;;;;10.57;5.00;;;8.90;1.00;;;;;;5080678;27;20233;-82
2022/03/18 03:00:05;;;;;;;9.63;4.77;;;8.90;1.00;;;;;;5065566;28;20447;-80
2022/03/18 03:02:32;;;;;;;9.07;5.97;;;8.90;1.00;;;;;;5068159;28;20447;-82
2022/03/18 03:10:37;;;;;;;10.10;5.40;;;8.90;1.00;;;;;;5028595;28;20293;-83
2022/03/18 03:13:10;;;;;;;7.90;4.70;;;8.80;1.00;;;;;;5070103;28;20442;-84
2022/03/18 03:15:40;;;;;;;13.32;5.55;;;8.80;1.00;;;;;;5071364;28;20712;-83
2022/03/18 03:18:08;;;;;;;8.43;5.60;;;8.80;1.00;;;;;;5073227;28;20235;-81
2022/03/18 03:20:34;;;;;;;7.10;4.70;;;8.80;1.00;;;;;;5077384;28;20232;-80
2022/03/18 03:23:02;;;;;;;10.03;5.03;;;8.80;1.00;;;;;;5077041;28;20802;-84
2022/03/18 03:25:28;;;;;;;12.20;5.30;;;8.80;1.00;;;;;;5071109;28;20450;-85
2022/03/18 03:27:56;;;;;;;12.90;5.28;;;8.80;1.00;;;;;;5091844;27;20224;-82
2022/03/18 03:30:24;;;;;;;11.03;3.90;;;8.80;1.00;;;;;;5072783;28;20465;-81
2022/03/18 03:32:51;;;;;;;11.63;4.80;;;8.80;1.00;;;;;;5077832;28;20454;-84
2022/03/18 03:35:18;;;;;;;8.20;5.27;;;8.80;1.00;;;;;;5080786;28;20403;-84
2022/03/18 03:37:45;;;;;;;10.90;8.52;;;8.80;1.00;;;;;;5077788;28;20446;-83
2022/03/18 03:40:13;;;;;;;13.57;6.10;;;8.80;1.00;;;;;;5070518;28;21064;-85
2022/03/18 03:42:41;;;;;;;10.27;4.93;;;8.80;1.00;;;;;;5070631;28;21203;-84
2022/03/18 03:45:09;;;;;;;12.07;3.90;;;8.70;1.00;;;;;;5072305;28;20966;-84
2022/03/18 03:47:37;;;;;;;9.85;4.57;;;8.70;1.00;;;;;;5075605;28;20313;-84
2022/03/18 03:50:05;;;;;;;8.40;3.30;;;8.70;1.00;;;;;;5074587;28;20224;-83
2022/03/18 03:52:32;;;;;;;9.90;3.87;;;8.80;1.00;;;;;;5072378;28;20232;-84
2022/03/18 03:54:59;;;;;;;11.30;4.35;;;8.80;1.00;;;;;;5079090;28;20546;-84
2022/03/18 03:57:25;;;;;;;6.22;3.60;;;8.80;1.00;;;;;;5070503;28;20225;-84
2022/03/18 03:59:52;;;;;;;8.50;3.70;;;8.80;1.00;;;;;;5076572;28;20248;-83
2022/03/18 04:02:20;;;;;;;7.93;3.45;;;8.70;1.00;;;;;;5077702;28;20216;-84
2022/03/18 04:04:48;;;;;;;9.18;4.03;;;8.70;1.00;;;;;;5095988;27;20224;-84
2022/03/18 04:07:14;;;;;;;6.97;3.60;;;8.70;1.00;;;;;;5079654;28;21310;-84
2022/03/18 04:09:41;;;;;;;8.48;3.85;;;8.70;1.00;;;;;;5082021;28;20503;-84
2022/03/18 04:12:08;;;;;;;12.57;4.00;;;8.70;1.00;;;;;;5102991;28;20231;-84
2022/03/18 04:15:01;;;;;;;8.00;3.67;;;8.60;1.00;;;;;;5085673;28;20232;-83
2022/03/18 04:17:36;;;;;;;8.10;3.80;;;8.50;1.00;;;;;;5073447;28;20240;-83
2022/03/18 04:20:05;;;;;;;13.63;4.28;;;8.60;1.00;;;;;;5072699;28;20232;-84
2022/03/18 04:22:31;;;;;;;6.90;3.80;;;8.50;1.00;;;;;;5075151;28;20396;-85
2022/03/18 04:24:59;;;;;;;7.15;3.67;;;8.30;1.00;;;;;;5072023;28;20455;-85
2022/03/18 04:27:26;;;;;;;7.65;3.83;;;8.30;1.00;;;;;;5081377;28;20229;-85
2022/03/18 04:29:53;;;;;;;14.23;5.30;;;8.30;1.00;;;;;;5077071;28;20221;-86
2022/03/18 04:32:20;;;;;;;10.10;4.40;;;8.20;1.00;;;;;;5076059;28;20468;-84
2022/03/18 04:34:46;;;;;;;8.60;4.10;;;8.20;1.00;;;;;;5079905;28;20342;-84
2022/03/18 04:37:14;;;;;;;7.70;3.38;;;8.20;1.00;;;;;;5075942;28;20458;-84
2022/03/18 04:39:41;;;;;;;13.88;4.18;;;8.20;1.00;;;;;;5073862;28;20239;-85
2022/03/18 04:42:09;;;;;;;9.70;3.60;;;8.20;1.00;;;;;;5074674;28;21290;-85
2022/03/18 04:44:35;;;;;;;7.32;3.95;;;8.20;1.00;;;;;;5080276;28;21009;-83
2022/03/18 04:47:02;;;;;;;11.82;4.43;;;8.30;1.00;;;;;;5080044;28;20213;-84
2022/03/18 04:49:29;;;;;;;10.82;5.00;;;8.30;1.00;;;;;;5087457;28;20225;-86
2022/03/18 04:51:56;;;;;;;12.98;4.50;;;8.40;1.00;;;;;;5085298;28;20220;-87
2022/03/18 04:54:24;;;;;;;9.00;4.47;;;8.40;1.00;;;;;;5079194;28;20229;-85
2022/03/18 04:59:35;;;;;;;10.98;4.90;;;8.30;1.00;;;;;;5076455;28;20284;-83
2022/03/18 05:02:02;;;;;;;6.63;4.03;;;8.40;1.00;;;;;;5072756;28;20233;-83
2022/03/18 05:04:29;;;;;;;11.10;5.35;;;8.30;1.00;;;;;;5079676;28;21362;-85
2022/03/18 05:06:55;;;;;;;14.90;5.15;;;8.30;1.00;;;;;;5085005;28;20223;-84
2022/03/18 05:09:25;;;;;;;15.17;5.43;;;8.30;1.00;;;;;;5090043;28;20282;-83
2022/03/18 05:11:51;;;;;;;8.77;4.23;;;8.30;1.00;;;;;;5105303;27;20407;-82
2022/03/18 05:14:19;;;;;;;9.13;4.40;;;8.30;1.00;;;;;;5107391;27;20437;-82
2022/03/18 05:17:11;;;;;;;11.07;4.55;;;8.40;1.00;;;;;;5099687;28;20232;-83
2022/03/18 05:19:42;;;;;;;10.90;5.90;;;8.30;1.00;;;;;;5099441;28;20224;-83
2022/03/18 05:22:09;;;;;;;15.00;4.53;;;8.30;1.00;;;;;;5087621;28;20513;-82
2022/03/18 05:24:37;;;;;;;10.02;5.10;;;8.30;1.00;;;;;;5078839;28;20546;-83
2022/03/18 05:27:04;;;;;;;16.50;6.57;;;8.30;1.00;;;;;;5078245;28;20835;-84
2022/03/18 05:29:32;;;;;;;10.32;5.10;;;8.30;1.00;;;;;;5076207;28;20234;-84
2022/03/18 05:31:59;;;;;;;14.27;5.93;;;8.30;1.00;;;;;;5077658;28;20372;-84
2022/03/18 05:34:26;;;;;;;18.67;5.30;;;8.30;1.00;;;;;;5078583;28;20587;-84
2022/03/18 05:36:53;;;;;;;16.60;5.72;;;8.30;1.00;;;;;;5072521;28;21815;-83
2022/03/18 05:39:20;;;;;;;8.30;4.22;;;8.30;1.00;;;;;;5097218;27;20228;-84
2022/03/18 05:41:48;;;;;;;15.18;4.65;;;8.30;1.00;;;;;;5100420;27;20223;-84
2022/03/18 05:44:15;;;;;;;19.03;7.30;;;8.20;1.00;;;;;;5088834;28;20227;-84
2022/03/18 05:46:42;;;;;;;10.38;4.72;;;8.20;1.00;;;;;;5083416;28;20886;-84
2022/03/18 05:49:09;;;;;;;11.23;4.37;;;8.20;1.00;;;;;;5074952;28;20240;-82
2022/03/18 05:51:36;;;;;;;14.10;4.20;;;8.20;1.00;;;;;;5070631;28;20913;-82
2022/03/18 05:54:03;;;;;;;11.43;5.00;;;8.10;1.00;;;;;;5067822;28;20251;-82
2022/03/18 05:59:19;;;;;;;12.07;6.03;;;8.10;1.00;;;;;;5097837;27;21026;-83
2022/03/18 06:01:46;;;;;;;14.15;6.72;;;8.10;1.00;;;;;;5073951;28;20273;-83
2022/03/18 06:04:14;;;;;;;14.52;5.18;;;8.10;1.00;;;;;;5074532;28;20295;-82
2022/03/18 06:06:41;;;;;;;9.05;3.80;;;8.00;1.00;;;;;;5076248;28;20285;-80
2022/03/18 06:11:53;;;;;;;11.45;4.78;;;7.90;1.00;;;;;;5085604;28;20331;-82
2022/03/18 06:14:24;;;;;;;14.45;5.22;;;7.90;1.00;;;;;;5078931;28;20244;-85
2022/03/18 06:16:54;;;;;;;11.68;4.00;;;7.90;1.00;;;;;;5098596;28;20225;-84
2022/03/18 06:19:23;;;;;;;15.00;4.30;;;7.90;1.00;;;;;;5079914;28;20251;-84
2022/03/18 06:21:50;;;;;;;16.17;7.72;;;7.90;1.00;;;;;;5079606;28;20222;-82
2022/03/18 06:24:18;;;;;;;14.32;5.70;;;7.90;1.00;;;;;;5074874;28;21185;-84
2022/03/18 06:26:45;;;;;;;17.45;5.18;;;7.90;1.00;;;;;;5076851;28;20340;-85
2022/03/18 06:29:12;;;;;;;12.77;5.00;;;7.90;1.00;;;;;;5075961;28;20279;-86
2022/03/18 06:31:41;;;;;;;22.27;5.70;;;7.90;1.00;;;;;;5073941;28;20630;-85
2022/03/18 06:34:09;;;;;;;17.20;4.45;;;7.90;1.00;;;;;;5084185;28;20228;-86
2022/03/18 06:36:36;;;;;;;17.80;5.38;;;7.90;1.00;;;;;;5084061;28;20222;-86
2022/03/18 06:39:04;;;;;;;12.13;5.05;;;7.90;1.00;;;;;;5083895;28;20395;-85
2022/03/18 06:41:31;;;;;;;12.27;3.88;;;8.00;1.00;;;;;;5100736;28;20232;-86
2022/03/18 06:44:00;;;;;;;9.05;4.65;;;8.00;1.00;;;;;;5104404;27;20232;-85
2022/03/18 06:46:42;;;;;;;12.30;4.80;;;8.00;1.00;;;;;;5085855;28;20228;-85
2022/03/18 06:49:13;;;;;;;13.50;4.53;;;8.00;1.00;;;;;;5088004;28;20228;-85
2022/03/18 06:51:43;;;;;;;10.23;4.15;;;8.10;1.00;;;;;;5101291;28;20234;-85
2022/03/18 06:54:16;;;;;;;13.15;4.90;;;8.20;1.00;;;;;;5082153;28;20217;-85
2022/03/18 06:56:44;;;;;;;16.83;6.20;;;8.20;1.00;;;;;;5086203;28;20822;-85
2022/03/18 06:59:11;;;;;;;16.08;5.28;;;8.20;1.00;;;;;;5076261;28;20245;-85
2022/03/18 07:01:50;;;;;;;10.20;3.58;;;8.20;1.00;;;;;;5078735;28;20224;-85
2022/03/18 07:04:18;;;;;;;12.00;4.15;;;8.30;1.00;;;;;;5084022;28;20295;-83
2022/03/18 07:06:46;;;;;;;11.48;4.95;;;8.30;1.00;;;;;;5106531;27;20256;-82
2022/03/18 07:09:18;;;;;;;10.40;3.72;;;8.40;1.00;;;;;;5085318;28;20263;-82
2022/03/18 07:11:47;;;;;;;14.68;5.70;;;8.50;1.00;;;;;;5083726;28;20376;-84
2022/03/18 07:14:16;;;;;;;11.38;3.95;;;8.50;1.00;;;;;;5084369;28;20216;-84
2022/03/18 07:19:34;;;;;;;12.27;4.50;;;8.60;1.00;;;;;;5099237;28;20293;-85
2022/03/18 07:22:05;;;;;;;11.13;4.13;;;8.70;1.00;;;;;;5094649;28;20263;-84
2022/03/18 07:24:37;;;;;;;12.65;4.70;;;8.80;1.00;;;;;;5094429;28;20283;-86
2022/03/18 07:27:05;;;;;;;15.90;5.45;;;8.90;1.00;;;;;;5099295;28;20317;-85
2022/03/18 07:29:49;;;;;;;9.10;4.88;;;9.00;1.00;;;;;;5109485;28;20239;-85
2022/03/18 07:32:17;;;;;;;14.90;6.70;;;9.00;1.00;;;;;;5097780;28;20934;-85
2022/03/18 07:34:50;;;;;;;12.38;4.57;;;8.90;1.00;;;;;;5085899;28;21310;-85
2022/03/18 07:37:17;;;;;;;13.02;3.85;;;8.80;1.00;;;;;;5087276;28;20228;-81
2022/03/18 07:39:44;;;;;;;13.60;5.23;;;8.70;1.00;;;;;;5080485;28;20224;-83
2022/03/18 07:42:10;;;;;;;11.07;3.77;;;8.70;1.00;;;;;;5080397;28;20975;-85
2022/03/18 07:44:40;;;;;;;16.88;6.57;;;8.70;1.00;;;;;;5084257;28;20454;-86
2022/03/18 07:47:08;;;;;;;11.02;5.10;;;8.70;1.00;;;;;;5079070;28;20232;-88
2022/03/18 07:49:35;;;;;;;14.13;4.75;;;8.70;1.00;;;;;;5092878;28;20864;-89
2022/03/18 07:52:04;;;;;;;17.60;4.72;;;8.70;1.00;;;;;;5108294;28;20204;-87
2022/03/18 07:54:30;;;;;;;14.98;5.30;;;8.80;1.00;;;;;;5101624;27;20276;-88
2022/03/18 07:57:01;;;;;;;9.82;4.90;;;8.90;1.00;;;;;;5110042;27;20235;-88
2022/03/18 07:59:28;;;;;;;13.50;4.40;;;9.00;1.00;;;;;;5088487;28;20390;-87
2022/03/18 08:02:30;;;;;;;14.20;4.00;;;9.10;1.00;;;;;;5085102;28;20466;-86
2022/03/18 08:05:18;;;;;;;21.43;6.20;;;9.30;1.00;;;;;;5094953;27;20464;-86
2022/03/18 08:08:22;;;;;;;12.97;4.40;;;9.50;1.00;;;;;;5077339;28;20449;-86
2022/03/18 08:11:09;;;;;;;12.20;3.93;;;9.80;1.00;;;;;;5126234;22;20450;-87
2022/03/18 08:13:52;;;;;;;9.10;4.00;;;10.10;1.00;;;;;;5093616;27;20449;-87
2022/03/18 08:16:34;;;;;;;7.90;3.53;;;10.30;1.00;;;;;;5085944;28;20458;-83
2022/03/18 08:19:03;;;;;;;20.03;7.40;;;10.40;1.00;;;;;;5101700;28;20434;-83
2022/03/18 08:21:38;;;;;;;10.50;4.60;;;10.50;1.00;;;;;;5063369;28;20484;-82
2022/03/18 08:27:25;;;;;;;11.13;4.33;;;10.80;1.00;;;;;;5062335;28;20474;-83
2022/03/18 08:29:59;;;;;;;12.43;4.60;;;11.00;1.00;;;;;;5081023;28;20466;-83
2022/03/18 08:32:52;;;;;;;9.03;3.43;;;11.10;1.00;;;;;;5069923;28;21636;-82
2022/03/18 08:35:38;;;;;;;13.63;4.37;;;11.20;1.00;;;;;;5069505;28;20591;-83
2022/03/18 08:38:29;;;;;;;11.00;4.73;;;11.40;1.00;;;;;;5066085;28;20495;-84
2022/03/18 08:41:07;;;;;;;14.40;6.93;;;11.50;1.00;;;;;;5067860;28;21176;-82
2022/03/18 08:43:40;;;;;;;11.67;4.67;;;11.60;1.00;;;;;;5069421;28;20438;-85
2022/03/18 08:46:15;;;;;;;10.77;4.40;;;11.70;1.00;;;;;;5072932;28;20470;-84
2022/03/18 08:48:59;;;;;;;10.77;4.50;;;11.80;1.00;;;;;;5063008;28;21347;-83
2022/03/18 08:51:44;;;;;;;12.33;5.07;;;11.90;1.00;;;;;;5072546;28;20435;-83
2022/03/18 08:54:11;;;;;;;12.20;4.23;;;12.00;1.00;;;;;;5072131;28;20455;-84
2022/03/18 08:56:39;;;;;;;13.83;4.40;;;12.20;1.00;;;;;;5085672;28;21814;-82
2022/03/18 08:59:06;;;;;;;12.70;5.30;;;12.20;1.00;;;;;;5084151;28;20601;-81
2022/03/18 09:01:34;;;;;;;13.20;4.70;;;12.30;1.00;;;;;;5088934;28;20446;-81
2022/03/18 09:04:00;;;;;;;21.13;7.53;;;12.50;1.00;;;;;;5087038;28;20458;-81
2022/03/18 09:06:27;;;;;;;12.23;4.80;;;12.60;1.00;;;;;;5085935;28;20617;-80
2022/03/18 09:08:56;;;;;;;11.60;5.17;;;12.90;1.00;;;;;;5067423;28;20467;-81
2022/03/18 09:11:23;;;;;;;10.67;4.77;;;13.00;1.00;;;;;;5063804;28;20464;-81
2022/03/18 09:13:52;;;;;;;8.93;4.43;;;13.30;1.00;;;;;;5083224;28;20452;-85
2022/03/18 09:16:21;;;;;;;13.07;4.73;;;13.50;1.00;;;;;;5089116;28;20460;-86
2022/03/18 09:18:48;;;;;;;9.37;4.07;;;13.70;1.00;;;;;;5088861;28;21025;-84
2022/03/18 09:21:15;;;;;;;13.80;6.23;;;13.90;1.00;;;;;;5085744;28;20555;-85
2022/03/18 09:23:42;;;;;;;16.73;5.13;;;14.30;1.00;;;;;;5081706;28;20512;-85
2022/03/18 09:26:09;;;;;;;12.40;4.83;;;15.20;1.00;;;;;;5079708;28;20455;-84
2022/03/18 09:28:36;;;;;;;12.10;4.50;;;16.20;1.00;;;;;;5068399;28;20502;-78
2022/03/18 09:31:04;;;;;;;11.07;5.00;;;16.90;1.00;;;;;;5059341;28;20506;-79
2022/03/18 09:33:31;;;;;;;13.63;5.50;;;17.50;1.00;;;;;;5086146;28;20984;-80
2022/03/18 09:35:58;;;;;;;12.80;4.67;;;17.70;1.00;;;;;;5063116;28;20439;-80
2022/03/18 09:38:24;;;;;;;10.57;5.83;;;18.10;1.00;;;;;;5073047;28;20439;-80
2022/03/18 09:40:51;;;;;;;13.73;7.03;;;18.00;1.00;;;;;;5058830;28;20458;-80
2022/03/18 09:43:18;;;;;;;11.80;6.97;;;18.40;1.00;;;;;;5077747;28;20459;-80
2022/03/18 09:45:45;;;;;;;9.67;4.70;;;18.80;1.00;;;;;;5077654;28;20466;-80
2022/03/18 09:48:13;;;;;;;10.33;5.50;;;19.00;1.00;;;;;;5059831;28;21035;-80
2022/03/18 09:50:41;;;;;;;15.57;5.73;;;19.20;1.00;;;;;;5071165;28;25416;-79
2022/03/18 09:53:09;;;;;;;14.80;7.67;;;19.60;1.00;;;;;;5096828;28;20399;-82
2022/03/18 09:55:38;;;;;;;10.47;5.60;;;20.20;1.00;;;;;;5105987;27;20415;-81
2022/03/18 09:58:05;;;;;;;10.80;5.70;;;21.10;1.00;;;;;;5102290;28;20442;-80
2022/03/18 10:00:32;;;;;;;12.00;5.30;;;21.70;1.00;;;;;;5097796;27;20416;-80
2022/03/18 10:03:08;;;;;;;9.33;5.20;;;22.20;1.00;;;;;;5082431;27;20414;-80
2022/03/18 10:05:46;;;;;;;11.20;6.00;;;22.70;1.00;;;;;;5079392;28;20442;-82
2022/03/18 10:08:13;;;;;;;16.07;6.80;;;23.00;1.00;;;;;;5079698;28;20531;-81
2022/03/18 10:10:45;;;;;;;11.00;5.97;;;23.10;1.00;;;;;;5074046;28;20575;-81
2022/03/18 10:13:12;;;;;;;10.90;6.37;;;23.10;1.00;;;;;;5073450;28;20431;-80
2022/03/18 10:15:39;;;;;;;13.70;6.40;;;23.20;1.00;;;;;;5078098;28;20447;-79
2022/03/18 10:18:11;;;;;;;10.50;5.90;;;23.10;1.00;;;;;;5074459;28;20444;-80
2022/03/18 10:20:40;;;;;;;15.37;7.40;;;23.50;1.00;;;;;;5082232;28;20467;-81
2022/03/18 10:23:20;;;;;;;11.57;7.63;;;23.70;1.00;;;;;;5084442;28;20450;-81
2022/03/18 10:25:53;;;;;;;11.07;7.00;;;24.20;1.00;;;;;;5091926;28;20414;-77
2022/03/18 10:28:37;;;;;;;11.00;8.10;;;24.10;1.00;;;;;;5083172;28;20537;-79
2022/03/18 10:31:12;;;;;;;13.53;7.73;;;24.70;1.00;;;;;;5075838;28;20508;-80
2022/03/18 10:39:25;;;;;;;12.43;8.07;;;25.90;1.00;;;;;;5071156;28;20595;-80
2022/03/18 10:41:51;;;;;;;11.47;6.73;;;26.20;1.00;;;;;;5073864;28;20506;-78
2022/03/18 10:44:18;;;;;;;12.43;7.07;;;26.90;1.00;;;;;;5076731;28;20455;-79
2022/03/18 10:46:45;;;;;;;10.70;7.80;;;27.30;1.00;;;;;;5082077;28;20462;-79
2022/03/18 10:49:11;;;;;;;9.77;6.73;;;27.50;1.00;;;;;;5077031;28;20469;-77
2022/03/18 10:51:39;;;;;;;10.93;7.80;;;27.60;1.00;;;;;;5079414;28;20431;-77
2022/03/18 10:54:06;;;;;;;12.20;7.03;;;27.50;1.00;;;;;;5077953;28;20439;-78
2022/03/18 10:56:53;;;;;;;11.97;7.97;;;27.70;1.00;;;;;;5082778;28;20489;-81
2022/03/18 10:59:20;;;;;;;11.30;6.93;;;27.90;1.00;;;;;;5083870;28;20474;-80
2022/03/18 11:01:48;;;;;;;16.27;9.80;;;28.50;1.00;;;;;;5083525;28;21043;-81
2022/03/18 11:04:16;;;;;;;11.00;7.53;;;28.90;1.00;;;;;;5086237;27;20556;-81
2022/03/18 11:07:29;;;;;;;11.17;6.07;;;28.90;1.00;;;;;;5084920;28;20467;-82
2022/03/18 11:11:06;;;;;;;13.53;7.17;;;29.00;1.00;;;;;;5073436;28;20479;-81
2022/03/18 11:12:23;;;;;;;11.07;7.07;;;29.40;1.00;;;;;;5078234;28;20500;-81
2022/03/18 11:14:53;;;;;;;10.60;5.60;;;29.60;1.00;;;;;;5081238;28;20925;-82
2022/03/18 11:17:21;;;;;;;11.47;6.30;;;30.00;1.00;;;;;;5084366;28;21568;-80
2022/03/18 11:19:48;;;;;;;8.40;6.10;;;30.40;1.00;;;;;;5080204;28;20484;-81
2022/03/18 11:22:16;;;;;;;10.83;6.27;;;30.50;1.00;;;;;;5058235;28;20467;-85
2022/03/18 11:24:44;;;;;;;12.93;6.80;;;30.70;1.00;;;;;;5081638;28;20455;-85
2022/03/18 11:27:13;;;;;;;12.03;5.97;;;30.90;1.00;;;;;;5075631;28;20513;-80
2022/03/18 11:29:40;;;;;;;9.63;5.63;;;30.70;1.00;;;;;;5074971;28;21358;-78
2022/03/18 11:32:20;;;;;;;12.70;7.63;;;30.10;1.00;;;;;;5067295;28;20446;-82
2022/03/18 11:34:50;;;;;;;9.17;5.47;;;30.00;1.00;;;;;;5081127;28;20439;-79
2022/03/18 11:37:19;;;;;;;11.70;5.90;;;30.60;1.00;;;;;;5097725;27;20860;-80
2022/03/18 11:39:47;;;;;;;11.23;6.13;;;31.20;1.00;;;;;;5093686;28;20442;-80
2022/03/18 11:42:19;;;;;;;11.70;5.57;;;30.80;1.00;;;;;;5084125;28;21494;-80
2022/03/18 11:44:52;;;;;;;10.20;6.40;;;30.60;1.00;;;;;;5076989;28;20446;-81
2022/03/18 11:47:38;;;;;;;11.83;6.67;;;30.60;1.00;;;;;;5083166;28;21044;-79
2022/03/18 11:50:45;;;;;;;12.27;6.73;;;30.90;1.00;;;;;;5075091;28;20470;-81
2022/03/18 11:53:35;;;;;;;10.33;5.73;;;31.10;1.00;;;;;;5083086;28;20497;-81
2022/03/18 11:56:09;;;;;;;10.10;5.47;;;30.60;1.00;;;;;;5079806;28;20526;-81
2022/03/18 11:58:36;;;;;;;8.87;5.03;;;30.40;1.00;;;;;;5086188;28;20480;-80
2022/03/18 12:01:03;;;;;;;8.00;4.70;;;30.30;1.00;;;;;;5098228;28;20442;-80
2022/03/18 12:03:31;;;;;;;8.93;5.57;;;30.40;1.00;;;;;;5105879;28;20441;-78
2022/03/18 12:05:59;;;;;;;11.00;5.60;;;31.10;1.00;;;;;;5100266;27;20414;-78
2022/03/18 12:08:59;;;;;;;10.37;5.67;;;31.70;1.00;;;;;;5080392;28;20559;-79
2022/03/18 12:11:32;;;;;;;8.10;5.33;;;32.30;1.00;;;;;;5072837;28;22166;-80
2022/03/18 12:14:00;;;;;;;12.53;6.20;;;31.70;1.00;;;;;;5076817;28;20438;-79
2022/03/18 12:16:27;;;;;;;12.33;6.13;;;31.10;1.00;;;;;;5071596;28;20499;-80
2022/03/18 12:18:59;;;;;;;9.97;6.07;;;31.00;1.00;;;;;;5085259;28;20451;-81
2022/03/18 12:21:42;;;;;;;9.40;5.87;;;31.30;1.00;;;;;;5078644;28;21196;-80
2022/03/18 12:24:11;;;;;;;9.13;5.33;;;31.90;1.00;;;;;;5079624;28;20428;-81
2022/03/18 12:26:39;;;;;;;12.57;7.10;;;31.50;1.00;;;;;;5074869;28;21313;-82
2022/03/18 12:29:07;;;;;;;9.07;5.40;;;31.40;1.00;;;;;;5080275;28;20443;-82
2022/03/18 12:31:34;;;;;;;12.50;6.17;;;31.60;1.00;;;;;;5076538;28;20470;-80
2022/03/18 12:34:03;;;;;;;12.13;5.93;;;31.90;1.00;;;;;;5079682;28;20435;-80
2022/03/18 12:36:31;;;;;;;10.67;5.40;;;32.20;1.00;;;;;;5076021;28;20435;-79
2022/03/18 12:39:13;;;;;;;8.60;4.90;;;31.70;1.00;;;;;;5077578;28;21683;-79
2022/03/18 12:41:42;;;;;;;10.70;6.37;;;31.80;1.00;;;;;;5080226;28;20485;-80
2022/03/18 12:44:09;;;;;;;8.60;5.50;;;32.30;1.00;;;;;;5079394;28;20529;-81
2022/03/18 12:46:37;;;;;;;10.93;6.70;;;32.20;1.00;;;;;;5076606;28;20447;-80
2022/03/18 12:49:06;;;;;;;11.27;6.37;;;33.20;1.00;;;;;;5082269;28;22217;-81
2022/03/18 12:51:35;;;;;;;11.33;5.90;;;33.70;1.00;;;;;;5076433;28;20456;-80
2022/03/18 12:54:03;;;;;;;8.67;4.90;;;33.90;1.00;;;;;;5078918;28;20930;-80
2022/03/18 12:56:31;;;;;;;9.87;5.57;;;33.50;1.00;;;;;;5086480;28;20463;-80
2022/03/18 12:58:58;;;;;;;13.30;5.70;;;33.20;1.00;;;;;;5094208;28;20447;-79
2022/03/18 13:01:27;;;;;;;7.90;4.30;;;33.10;1.00;;;;;;5094427;28;20735;-80
2022/03/18 13:03:55;;;;;;;11.37;5.90;;;33.30;1.00;;;;;;5079103;28;20452;-80
2022/03/18 13:06:26;;;;;;;9.47;6.03;;;33.20;1.00;;;;;;5077603;28;20508;-83
2022/03/18 13:09:02;;;;;;;11.53;5.57;;;32.90;1.00;;;;;;5073423;28;20477;-79
2022/03/18 13:11:35;;;;;;;10.80;5.43;;;33.50;1.00;;;;;;5082850;28;20871;-80
2022/03/18 13:14:04;;;;;;;10.30;5.33;;;34.40;1.00;;;;;;5077580;28;20533;-84
2022/03/18 13:16:38;;;;;;;8.90;5.30;;;34.30;1.00;;;;;;5082144;28;21031;-84
2022/03/18 13:19:07;;;;;;;7.67;4.67;;;34.30;1.00;;;;;;5081318;28;20454;-87
2022/03/18 13:21:47;;;;;;;6.60;4.10;;;34.40;1.00;;;;;;5081241;28;20499;-86
2022/03/18 13:24:15;;;;;;;9.50;4.17;;;34.00;1.00;;;;;;5078766;28;20470;-84
2022/03/18 13:26:47;;;;;;;9.33;4.20;;;32.70;1.00;;;;;;5060221;28;21655;-84
2022/03/18 13:29:15;;;;;;;7.27;4.47;;;31.50;1.00;;;;;;5088799;28;21031;-83
2022/03/18 13:34:41;;;;;;;9.87;4.37;;;30.00;1.00;;;;;;5002892;28;20435;-82
2022/03/18 13:37:13;;;;;;;6.97;3.90;;;29.30;1.00;;;;;;5012718;28;20541;-85
2022/03/18 13:39:49;;;;;;;6.43;2.93;;;28.00;1.00;;;;;;5034535;28;20505;-84
2022/03/18 13:42:38;;;;;;;7.80;3.57;;;26.00;1.00;;;;;;5077833;28;20980;-83